KEWK/EWK METAR and TAF weather

Enter ICAO airport designator
Station Type Date Time Source
KEWK METAR 2020/02/28 07:56 UTC NOAA

KEWK 280756Z AUTO 26008KT 10SM CLR M01/M02 A3023 RMK AO2 SLP243 T10111017 FZRANO


Station Type Date Time Source
KEWK Decoded METAR 2020/02/28 07:56 UTC NOAA

Newton, Newton City/County Airport, KS, United States (KEWK) 38-03N 097-17W
Feb 28, 2020 - 02:56 AM EST / 2020.02.28 0756 UTC
Wind: from the W (260 degrees) at 9 MPH (8 KT):0
Visibility: 10 mile(s):0
Sky conditions: clear
Temperature: 30.0 F (-1.1 C)
Windchill: 21 F (-6 C):1
Dew Point: 28.9 F (-1.7 C)
Relative Humidity: 95%
Pressure (altimeter): 30.23 in. Hg (1023 hPa)
ob: KEWK 280756Z AUTO 26008KT 10SM CLR M01/M02 A3023 RMK AO2 SLP243 T10111017 FZRANO
cycle: 8

Station Type Date Time Source
KEWK TAF UTC NOAA

Error!

Example: see airport list